createdAt,value
2022-09-28T00:02:04.553Z,12.27
2022-09-28T00:04:36.811Z,12.23
2022-09-28T00:07:06.079Z,12.24
2022-09-28T00:09:33.878Z,12.14
2022-09-28T00:12:05.826Z,11.99
2022-09-28T00:14:34.146Z,12.06
2022-09-28T00:17:02.034Z,12.13
2022-09-28T00:19:33.918Z,12.17
2022-09-28T00:22:01.764Z,12.10
2022-09-28T00:24:31.018Z,12.17
2022-09-28T00:27:04.428Z,12.01
2022-09-28T00:29:33.786Z,12.02
2022-09-28T00:32:05.321Z,12.02
2022-09-28T00:34:36.136Z,12.06
2022-09-28T00:37:05.975Z,12.20
2022-09-28T00:39:40.554Z,12.11
2022-09-28T00:42:14.523Z,12.07
2022-09-28T00:44:51.107Z,12.04
2022-09-28T00:47:49.818Z,12.03
2022-09-28T00:50:29.971Z,12.05
2022-09-28T00:53:03.300Z,12.07
2022-09-28T00:55:41.334Z,12.06
2022-09-28T00:58:12.457Z,12.13
2022-09-28T01:00:44.679Z,12.06
2022-09-28T01:03:14.262Z,12.14
2022-09-28T01:05:42.772Z,12.27
2022-09-28T01:08:16.154Z,12.26
2022-09-28T01:10:45.386Z,12.14
2022-09-28T01:13:17.094Z,12.19
2022-09-28T01:16:02.622Z,12.20
2022-09-28T01:18:41.501Z,12.21
2022-09-28T01:21:18.893Z,12.28
2022-09-28T01:24:20.520Z,12.28
2022-09-28T01:27:11.674Z,12.40
2022-09-28T01:29:47.788Z,12.44
2022-09-28T01:32:23.796Z,12.44
2022-09-28T01:34:59.057Z,12.40
2022-09-28T01:37:35.190Z,12.28
2022-09-28T01:40:08.442Z,12.40
2022-09-28T01:42:41.183Z,12.44
2022-09-28T01:45:16.075Z,12.47
2022-09-28T01:47:48.632Z,12.44
2022-09-28T01:50:22.106Z,12.50
2022-09-28T01:52:55.160Z,12.44
2022-09-28T01:55:31.769Z,12.47
2022-09-28T01:58:06.392Z,12.47
2022-09-28T02:00:36.618Z,12.35
2022-09-28T02:03:12.979Z,12.37
2022-09-28T02:05:46.783Z,12.31
2022-09-28T02:08:25.163Z,12.46
2022-09-28T02:10:59.654Z,12.38
2022-09-28T02:13:35.082Z,12.36
2022-09-28T02:16:10.242Z,12.31
2022-09-28T02:18:40.276Z,12.24
2022-09-28T02:21:14.297Z,12.22
2022-09-28T02:23:53.093Z,12.33
2022-09-28T02:26:25.912Z,12.42
2022-09-28T02:28:57.193Z,12.39
2022-09-28T02:31:27.920Z,12.35
2022-09-28T02:33:59.993Z,12.30
2022-09-28T02:36:31.132Z,12.32
2022-09-28T02:39:04.110Z,12.20
2022-09-28T02:41:49.655Z,12.36
2022-09-28T02:44:37.527Z,12.24
2022-09-28T02:47:18.331Z,12.23
2022-09-28T02:49:56.570Z,12.24
2022-09-28T02:52:47.414Z,12.24
2022-09-28T02:55:27.091Z,12.18
2022-09-28T02:58:15.656Z,12.16
2022-09-28T03:00:54.764Z,12.14
2022-09-28T03:03:32.628Z,12.16
2022-09-28T03:06:07.580Z,12.19
2022-09-28T03:08:40.742Z,12.21
2022-09-28T03:11:17.892Z,12.25
2022-09-28T03:13:46.358Z,12.16
2022-09-28T03:16:21.753Z,12.19
2022-09-28T03:18:49.691Z,12.21
2022-09-28T03:21:19.744Z,12.22
2022-09-28T03:23:50.284Z,12.05
2022-09-28T03:26:18.078Z,12.09
2022-09-28T03:28:48.006Z,12.07
2022-09-28T03:31:17.423Z,12.10
2022-09-28T03:33:45.250Z,12.11
2022-09-28T03:36:15.048Z,12.01
2022-09-28T03:38:44.829Z,12.05
2022-09-28T03:41:14.802Z,12.05
2022-09-28T03:43:42.566Z,12.09
2022-09-28T03:46:12.427Z,11.98
2022-09-28T03:48:43.669Z,12.17
2022-09-28T03:51:12.302Z,12.18
2022-09-28T03:53:43.079Z,12.17
2022-09-28T03:56:17.470Z,12.18
2022-09-28T03:58:47.163Z,12.18
2022-09-28T04:01:17.928Z,12.14
2022-09-28T04:03:56.719Z,12.17
2022-09-28T04:06:25.064Z,12.14
2022-09-28T04:08:55.317Z,12.13
2022-09-28T04:11:30.040Z,12.21
2022-09-28T04:14:02.886Z,12.14
2022-09-28T04:16:35.540Z,12.16
2022-09-28T04:19:05.497Z,12.18
2022-09-28T04:21:37.721Z,12.14
2022-09-28T04:24:05.972Z,12.11
2022-09-28T04:26:33.784Z,11.98
2022-09-28T04:29:18.110Z,12.04
2022-09-28T04:31:48.561Z,12.06
2022-09-28T04:34:22.161Z,12.06
2022-09-28T04:36:50.247Z,12.07
2022-09-28T04:39:19.646Z,12.08
2022-09-28T04:41:52.040Z,11.97
2022-09-28T04:44:19.934Z,11.93
2022-09-28T04:46:47.721Z,12.04
2022-09-28T04:49:20.877Z,12.00
2022-09-28T04:51:48.661Z,11.97
2022-09-28T04:54:16.518Z,11.98
2022-09-28T04:56:48.380Z,11.99
2022-09-28T04:59:16.413Z,12.04
2022-09-28T05:01:44.657Z,12.07
2022-09-28T05:04:16.541Z,12.09
2022-09-28T05:06:45.773Z,12.08
2022-09-28T05:09:13.723Z,12.07
2022-09-28T05:11:45.653Z,12.15
2022-09-28T05:14:13.567Z,12.10
2022-09-28T05:16:41.521Z,12.20
2022-09-28T05:19:13.704Z,12.09
2022-09-28T05:21:44.119Z,12.22
2022-09-28T05:24:15.975Z,12.20
2022-09-28T05:26:43.949Z,12.20
2022-09-28T05:29:11.893Z,12.16
2022-09-28T05:31:42.022Z,12.17
2022-09-28T05:34:10.122Z,12.16
2022-09-28T05:36:39.225Z,12.20
2022-09-28T05:39:11.908Z,12.12
2022-09-28T05:41:41.724Z,12.01
2022-09-28T05:44:09.861Z,11.95
2022-09-28T05:46:41.680Z,12.08
2022-09-28T05:49:09.791Z,12.05
2022-09-28T05:51:39.238Z,12.04
2022-09-28T05:54:11.894Z,12.04
2022-09-28T05:56:41.438Z,12.09
2022-09-28T05:59:09.359Z,12.14
2022-09-28T06:01:39.436Z,12.16
2022-09-28T06:04:07.942Z,12.15
2022-09-28T06:06:36.673Z,12.11
2022-09-28T06:09:08.770Z,12.10
2022-09-28T06:11:36.618Z,12.10
2022-09-28T06:14:07.845Z,12.13
2022-09-28T06:16:41.737Z,12.09
2022-09-28T06:19:13.288Z,12.07
2022-09-28T06:21:41.959Z,12.15
2022-09-28T06:24:11.205Z,12.10
2022-09-28T06:26:39.114Z,12.13
2022-09-28T06:29:08.709Z,12.13
2022-09-28T06:31:36.614Z,12.25
2022-09-28T06:34:04.447Z,12.30
2022-09-28T06:36:34.598Z,12.34
2022-09-28T06:39:02.427Z,12.34
2022-09-28T06:41:30.388Z,12.23
2022-09-28T06:44:02.586Z,12.32
2022-09-28T06:46:31.941Z,12.37
2022-09-28T06:48:59.925Z,12.30
2022-09-28T06:51:32.112Z,12.28
2022-09-28T06:53:59.998Z,12.29
2022-09-28T06:56:32.587Z,12.44
2022-09-28T06:59:05.135Z,12.53
2022-09-28T07:01:34.687Z,12.55
2022-09-28T07:04:03.224Z,12.64
2022-09-28T07:06:35.314Z,12.58
2022-09-28T07:09:25.865Z,12.55
2022-09-28T07:11:58.320Z,12.61
2022-09-28T07:14:44.558Z,12.62
2022-09-28T07:17:19.877Z,12.80
2022-09-28T07:19:52.728Z,12.92
2022-09-28T07:22:37.299Z,12.91
2022-09-28T07:25:10.379Z,12.97
2022-09-28T07:27:38.337Z,13.07
2022-09-28T07:30:07.116Z,12.86
2022-09-28T07:32:37.572Z,12.89
2022-09-28T07:35:11.411Z,12.87
2022-09-28T07:37:39.452Z,12.93
2022-09-28T07:40:28.331Z,12.99
2022-09-28T07:42:56.278Z,12.93
2022-09-28T07:45:26.411Z,12.97
2022-09-28T07:47:57.491Z,13.06
2022-09-28T07:50:25.346Z,13.45
2022-09-28T07:52:53.324Z,13.75
2022-09-28T07:55:23.666Z,14.00
2022-09-28T07:58:01.196Z,14.19
2022-09-28T08:00:34.129Z,14.29
2022-09-28T08:03:06.117Z,14.15
2022-09-28T08:05:36.013Z,14.14
2022-09-28T08:08:04.174Z,14.21
2022-09-28T08:10:32.099Z,14.14
2022-09-28T08:13:06.519Z,14.49
2022-09-28T08:15:38.658Z,14.57
2022-09-28T08:18:10.315Z,14.63
2022-09-28T08:20:55.971Z,14.62
2022-09-28T08:23:28.112Z,14.71
2022-09-28T08:25:56.160Z,14.85
2022-09-28T08:28:25.969Z,15.14
2022-09-28T08:30:56.163Z,15.20
2022-09-28T08:33:25.560Z,15.32
2022-09-28T08:35:58.653Z,15.41
2022-09-28T08:38:27.208Z,14.90
2022-09-28T08:41:06.583Z,14.92
2022-09-28T08:43:52.569Z,14.80
2022-09-28T08:46:27.002Z,14.92
2022-09-28T08:49:24.072Z,14.75
2022-09-28T08:52:01.917Z,14.36
2022-09-28T08:54:38.393Z,14.32
2022-09-28T08:57:15.529Z,13.85
2022-09-28T08:59:49.383Z,13.85
2022-09-28T09:02:27.416Z,13.91
2022-09-28T09:04:57.565Z,13.93
2022-09-28T09:08:04.146Z,14.08
2022-09-28T09:10:42.772Z,14.06
2022-09-28T09:13:33.323Z,13.77
2022-09-28T09:16:06.121Z,13.68
2022-09-28T09:18:40.410Z,13.54
2022-09-28T09:21:16.124Z,13.47
2022-09-28T09:23:57.021Z,13.37
2022-09-28T09:26:38.655Z,13.32
2022-09-28T09:29:24.376Z,13.43
2022-09-28T09:32:07.378Z,13.44
2022-09-28T09:34:52.638Z,13.61
2022-09-28T09:37:36.769Z,13.86
2022-09-28T09:40:19.437Z,13.65
2022-09-28T09:43:02.692Z,13.56
2022-09-28T09:45:47.244Z,13.62
2022-09-28T09:48:21.262Z,13.70
2022-09-28T09:50:57.514Z,13.74
2022-09-28T09:53:36.109Z,13.63
2022-09-28T09:56:14.366Z,13.45
2022-09-28T09:58:48.025Z,13.44
2022-09-28T10:01:23.782Z,13.15
2022-09-28T10:03:53.073Z,13.47
2022-09-28T10:06:28.615Z,13.78
2022-09-28T10:09:05.107Z,13.62
2022-09-28T10:11:40.121Z,13.54
2022-09-28T10:14:09.776Z,13.22
2022-09-28T10:16:39.923Z,13.02
2022-09-28T10:19:10.956Z,13.14
2022-09-28T10:21:41.113Z,13.11
2022-09-28T10:24:18.555Z,13.27
2022-09-28T10:26:50.872Z,13.38
2022-09-28T10:29:22.956Z,13.23
2022-09-28T10:31:51.863Z,13.36
2022-09-28T10:34:28.160Z,13.33
2022-09-28T10:37:00.722Z,13.35
2022-09-28T10:39:41.168Z,13.52
2022-09-28T10:42:12.608Z,13.59
2022-09-28T10:44:54.923Z,13.54
2022-09-28T10:47:25.713Z,13.31
2022-09-28T10:49:55.915Z,13.42
2022-09-28T10:52:33.406Z,13.20
2022-09-28T10:55:03.156Z,13.28
2022-09-28T10:57:35.709Z,13.48
2022-09-28T11:00:06.467Z,13.55
2022-09-28T11:02:37.244Z,13.47
2022-09-28T11:05:08.179Z,13.21
2022-09-28T11:07:47.133Z,13.20
2022-09-28T11:10:23.052Z,13.17
2022-09-28T11:12:52.155Z,13.23
2022-09-28T11:15:22.649Z,13.02
2022-09-28T11:17:50.337Z,12.92
2022-09-28T11:20:36.034Z,12.73
2022-09-28T11:23:22.773Z,12.82
2022-09-28T11:26:03.801Z,13.23
2022-09-28T11:28:37.685Z,13.16
2022-09-28T11:31:09.228Z,13.23
2022-09-28T11:33:41.096Z,12.93
2022-09-28T11:36:28.254Z,12.78
2022-09-28T11:39:08.889Z,12.74
2022-09-28T11:41:57.798Z,13.29
2022-09-28T11:44:41.116Z,13.63
2022-09-28T11:47:28.683Z,13.68
2022-09-28T11:50:03.232Z,13.51
2022-09-28T11:52:40.859Z,13.21
2022-09-28T11:55:16.733Z,13.12
2022-09-28T11:57:51.566Z,12.91
2022-09-28T12:00:22.497Z,13.20
2022-09-28T12:02:56.336Z,13.50
2022-09-28T12:05:29.508Z,14.03
2022-09-28T12:08:17.037Z,14.66
2022-09-28T12:10:52.650Z,14.17
2022-09-28T12:13:27.506Z,13.68
2022-09-28T12:16:38.779Z,13.46
2022-09-28T12:18:54.582Z,13.13
2022-09-28T12:21:37.515Z,12.89
2022-09-28T12:24:13.614Z,12.81
2022-09-28T12:26:48.562Z,12.62
2022-09-28T12:29:24.470Z,12.55
2022-09-28T12:31:59.612Z,12.66
2022-09-28T12:34:27.630Z,12.79
2022-09-28T12:37:17.293Z,13.17
2022-09-28T12:39:59.803Z,13.65
2022-09-28T12:42:49.261Z,13.49
2022-09-28T12:45:28.819Z,13.52
2022-09-28T12:48:17.224Z,13.66
2022-09-28T12:50:57.489Z,13.88
2022-09-28T12:53:47.582Z,13.55
2022-09-28T12:56:39.416Z,13.11
2022-09-28T12:59:21.872Z,12.93
2022-09-28T13:02:12.653Z,12.97
2022-09-28T13:04:58.052Z,12.97
2022-09-28T13:07:35.479Z,12.97
2022-09-28T13:10:19.627Z,13.01
2022-09-28T13:13:04.655Z,13.07
2022-09-28T13:15:46.069Z,12.87
2022-09-28T13:18:23.439Z,12.81
2022-09-28T13:21:08.942Z,12.64
2022-09-28T13:23:41.451Z,12.65
2022-09-28T13:26:18.057Z,12.66
2022-09-28T13:28:50.283Z,12.87
2022-09-28T13:31:21.921Z,12.93
2022-09-28T13:33:51.184Z,12.94
2022-09-28T13:36:43.468Z,12.76
2022-09-28T13:39:37.029Z,12.67
2022-09-28T13:42:09.558Z,12.74
2022-09-28T13:44:50.637Z,12.93
2022-09-28T13:47:35.531Z,12.78
2022-09-28T13:50:19.433Z,12.82
2022-09-28T13:52:51.241Z,12.70
2022-09-28T13:55:29.303Z,12.80
2022-09-28T13:58:01.900Z,12.48
2022-09-28T14:00:37.209Z,12.33
2022-09-28T14:03:15.083Z,12.32
2022-09-28T14:05:49.086Z,12.50
2022-09-28T14:08:36.451Z,12.81
2022-09-28T14:11:49.980Z,12.85
2022-09-28T14:14:49.009Z,12.55
2022-09-28T14:17:54.266Z,12.42
2022-09-28T14:20:29.230Z,12.33
2022-09-28T14:23:31.221Z,12.24
2022-09-28T14:26:23.298Z,12.23
2022-09-28T14:29:09.986Z,12.35
2022-09-28T14:31:43.662Z,12.32
2022-09-28T14:34:36.231Z,12.41
2022-09-28T14:37:25.503Z,12.44
2022-09-28T14:40:13.031Z,12.55
2022-09-28T14:42:42.801Z,12.44
2022-09-28T14:45:38.522Z,12.39
2022-09-28T14:48:22.504Z,12.40
2022-09-28T14:50:55.800Z,12.32
2022-09-28T14:53:25.942Z,12.19
2022-09-28T14:55:58.861Z,12.29
2022-09-28T14:58:29.936Z,12.10
2022-09-28T15:01:03.740Z,12.00
2022-09-28T15:03:35.383Z,11.88
2022-09-28T15:06:04.718Z,11.95
2022-09-28T15:08:41.471Z,11.86
2022-09-28T15:11:15.927Z,11.81
2022-09-28T15:13:44.734Z,11.74
2022-09-28T15:16:16.917Z,11.76
2022-09-28T15:19:10.580Z,11.73
2022-09-28T15:21:42.018Z,11.75
2022-09-28T15:24:29.021Z,11.63
2022-09-28T15:26:57.206Z,11.69
2022-09-28T15:29:25.810Z,11.66
2022-09-28T15:31:55.489Z,11.58
2022-09-28T15:34:51.112Z,11.47
2022-09-28T15:37:25.944Z,11.48
2022-09-28T15:39:57.501Z,11.10
2022-09-28T15:42:25.850Z,11.00
2022-09-28T15:45:37.362Z,11.05
2022-09-28T15:48:31.075Z,10.93
2022-09-28T15:51:10.310Z,10.98
2022-09-28T15:53:43.542Z,10.94
2022-09-28T15:56:12.417Z,10.94
2022-09-28T15:58:40.974Z,10.96
2022-09-28T16:01:38.160Z,10.83
2022-09-28T16:04:38.589Z,10.75
2022-09-28T16:07:25.667Z,10.43
2022-09-28T16:10:01.144Z,10.30
2022-09-28T16:12:41.676Z,10.07
2022-09-28T16:15:14.958Z,10.01
2022-09-28T16:17:50.067Z,9.97
2022-09-28T16:20:27.068Z,9.80
2022-09-28T16:23:01.394Z,9.83
2022-09-28T16:25:30.608Z,9.77
2022-09-28T16:28:01.340Z,9.68
2022-09-28T16:30:34.590Z,9.74
2022-09-28T16:33:06.791Z,9.71
2022-09-28T16:35:51.334Z,9.55
2022-09-28T16:38:21.849Z,9.58
2022-09-28T16:40:55.526Z,9.55
2022-09-28T16:43:27.265Z,9.31
2022-09-28T16:45:57.771Z,9.30
2022-09-28T16:48:27.085Z,9.21
2022-09-28T16:50:54.911Z,9.22
2022-09-28T16:53:42.032Z,9.18
2022-09-28T16:56:14.350Z,9.15
2022-09-28T16:58:42.524Z,9.20
2022-09-28T17:01:14.809Z,9.20
2022-09-28T17:03:46.909Z,9.25
2022-09-28T17:06:16.111Z,9.27
2022-09-28T17:08:44.225Z,9.31
2022-09-28T17:11:18.151Z,9.29
2022-09-28T17:13:50.684Z,9.21
2022-09-28T17:16:32.293Z,9.15
2022-09-28T17:19:19.161Z,9.07
2022-09-28T17:21:47.307Z,9.13
2022-09-28T17:24:15.456Z,8.97
2022-09-28T17:26:47.696Z,9.01
2022-09-28T17:29:16.401Z,9.05
2022-09-28T17:31:45.284Z,9.07
2022-09-28T17:34:19.150Z,9.02
2022-09-28T17:36:47.995Z,8.98
2022-09-28T17:39:18.523Z,8.89
2022-09-28T17:41:48.028Z,8.88
2022-09-28T17:44:18.974Z,8.83
2022-09-28T17:46:49.668Z,8.81
2022-09-28T17:49:18.764Z,8.75
2022-09-28T17:51:46.753Z,8.71
2022-09-28T17:54:18.719Z,8.83
2022-09-28T17:56:50.134Z,8.68
2022-09-28T17:59:21.915Z,8.59
2022-09-28T18:01:49.882Z,8.63
2022-09-28T18:04:40.162Z,8.66
2022-09-28T18:07:08.662Z,8.69
2022-09-28T18:09:38.915Z,8.71
2022-09-28T18:12:08.624Z,8.65
2022-09-28T18:14:38.978Z,8.65
2022-09-28T18:17:08.967Z,8.75
2022-09-28T18:19:37.041Z,8.88
2022-09-28T18:22:07.026Z,8.96
2022-09-28T18:24:38.321Z,8.92
2022-09-28T18:27:06.377Z,8.92
2022-09-28T18:29:37.964Z,8.97
2022-09-28T18:32:08.084Z,8.93
2022-09-28T18:34:37.689Z,9.02
2022-09-28T18:37:08.695Z,9.06
2022-09-28T18:39:40.223Z,9.03
2022-09-28T18:42:08.655Z,9.04
2022-09-28T18:44:40.590Z,9.00
2022-09-28T18:47:15.107Z,9.05
2022-09-28T18:49:46.565Z,8.96
2022-09-28T18:52:17.186Z,8.90
2022-09-28T18:54:46.889Z,8.75
2022-09-28T18:57:15.284Z,8.66
2022-09-28T18:59:49.770Z,8.64
2022-09-28T19:02:18.541Z,8.69
2022-09-28T19:04:48.747Z,8.67
2022-09-28T19:07:19.140Z,8.70
2022-09-28T19:09:48.040Z,8.59
2022-09-28T19:12:19.101Z,8.53
2022-09-28T19:14:50.528Z,8.43
2022-09-28T19:17:18.921Z,8.29
2022-09-28T19:19:47.164Z,8.41
2022-09-28T19:22:17.180Z,8.37
2022-09-28T19:24:45.221Z,8.21
2022-09-28T19:27:17.249Z,8.22
2022-09-28T19:29:47.095Z,8.04
2022-09-28T19:32:16.499Z,8.06
2022-09-28T19:34:44.400Z,8.00
2022-09-28T19:37:14.432Z,7.94
2022-09-28T19:39:45.447Z,7.98
2022-09-28T19:42:13.274Z,8.02
2022-09-28T19:44:41.127Z,7.81
2022-09-28T19:47:12.462Z,7.66
2022-09-28T19:49:43.858Z,7.85
2022-09-28T19:52:17.137Z,7.70
2022-09-28T19:54:54.015Z,7.68
2022-09-28T19:57:22.652Z,7.66
2022-09-28T19:59:52.694Z,7.67
2022-09-28T20:02:23.805Z,7.57
2022-09-28T20:04:54.876Z,7.65
2022-09-28T20:07:23.113Z,7.49
2022-09-28T20:10:59.921Z,7.65
2022-09-28T20:13:32.476Z,7.44
2022-09-28T20:16:05.672Z,7.21
2022-09-28T20:18:36.023Z,7.15
2022-09-28T20:21:09.597Z,7.19
2022-09-28T20:23:37.416Z,6.89
2022-09-28T20:26:06.123Z,6.93
2022-09-28T20:28:34.516Z,6.97
2022-09-28T20:31:03.418Z,7.08
2022-09-28T20:33:32.811Z,7.17
2022-09-28T20:36:07.671Z,7.13
2022-09-28T20:38:38.303Z,7.14
2022-09-28T20:41:07.120Z,7.21
2022-09-28T20:43:35.410Z,7.13
2022-09-28T20:46:04.517Z,7.29
2022-09-28T20:48:33.011Z,7.27
2022-09-28T20:51:05.042Z,7.05
2022-09-28T20:53:36.918Z,6.93
2022-09-28T20:56:07.220Z,6.99
2022-09-28T20:58:35.293Z,7.01
2022-09-28T21:01:09.817Z,6.96
2022-09-28T21:03:38.282Z,6.79
2022-09-28T21:06:12.138Z,6.90
2022-09-28T21:08:43.464Z,7.02
2022-09-28T21:11:14.018Z,7.01
2022-09-28T21:13:42.826Z,7.15
2022-09-28T21:16:13.709Z,7.17
2022-09-28T21:18:43.986Z,7.13
2022-09-28T21:21:16.534Z,7.21
2022-09-28T21:23:48.277Z,7.12
2022-09-28T21:26:26.576Z,7.26
2022-09-28T21:28:54.993Z,7.21
2022-09-28T21:31:29.114Z,7.14
2022-09-28T21:33:59.954Z,7.13
2022-09-28T21:36:29.794Z,7.26
2022-09-28T21:38:59.094Z,7.36
2022-09-28T21:41:27.105Z,7.39
2022-09-28T21:43:57.295Z,7.29
2022-09-28T21:46:25.191Z,7.36
2022-09-28T21:48:55.955Z,7.42
2022-09-28T21:51:25.873Z,7.39
2022-09-28T21:53:54.172Z,7.40
2022-09-28T21:56:26.071Z,7.60
2022-09-28T21:58:56.030Z,7.75
2022-09-28T22:01:26.128Z,7.85
2022-09-28T22:03:57.770Z,8.01
2022-09-28T22:06:29.032Z,8.16
2022-09-28T22:08:57.486Z,8.24
2022-09-28T22:11:32.185Z,8.26
2022-09-28T22:14:02.075Z,8.34
2022-09-28T22:16:31.765Z,8.35
2022-09-28T22:19:02.441Z,8.25
2022-09-28T22:21:34.652Z,8.22
2022-09-28T22:24:06.911Z,8.18
2022-09-28T22:26:39.477Z,8.23
2022-09-28T22:29:11.882Z,8.15
2022-09-28T22:31:42.094Z,8.24
2022-09-28T22:34:10.911Z,8.23
2022-09-28T22:36:41.000Z,8.16
2022-09-28T22:39:08.799Z,8.28
2022-09-28T22:41:39.965Z,8.24
2022-09-28T22:44:10.170Z,8.23
2022-09-28T22:46:37.995Z,8.08
2022-09-28T22:49:05.994Z,7.97
2022-09-28T22:51:37.999Z,7.91
2022-09-28T22:54:06.709Z,7.94
2022-09-28T22:56:34.512Z,8.00
2022-09-28T22:59:09.981Z,7.94
2022-09-28T23:01:37.894Z,7.74
2022-09-28T23:04:07.800Z,7.81
2022-09-28T23:06:37.610Z,7.65
2022-09-28T23:09:05.767Z,7.68
2022-09-28T23:11:35.722Z,7.83
2022-09-28T23:14:05.005Z,7.82
2022-09-28T23:16:32.847Z,7.81
2022-09-28T23:19:02.833Z,7.88
2022-09-28T23:21:33.228Z,7.85
2022-09-28T23:24:02.069Z,7.81
2022-09-28T23:26:36.351Z,7.86
2022-09-28T23:29:05.778Z,7.87
2022-09-28T23:31:35.801Z,7.77
2022-09-28T23:34:07.973Z,7.81
2022-09-28T23:36:35.888Z,7.78
2022-09-28T23:39:05.844Z,7.64
2022-09-28T23:41:35.435Z,7.45
2022-09-28T23:44:04.961Z,7.42
2022-09-28T23:46:35.004Z,7.47
2022-09-28T23:49:03.070Z,7.42
2022-09-28T23:51:31.107Z,7.47
2022-09-28T23:54:04.472Z,7.27
2022-09-28T23:56:32.288Z,7.31
2022-09-28T23:59:00.560Z,7.25
